Time;durP1;ratioP1;P1;durP2;ratioP2;P2;SDS_P1;SDS_P2;PMS_P1;PMS_P2;Temp;Humidity;BMP_temperature;BMP_pressure;BME280_temperature;BME280_humidity;BME280_pressure;Samples;Min_cycle;Max_cycle;Signal;HPM_P1;HPM_P2
2022/03/31 00:01:30;;;;;;;6.22;2.80;;;;;;;18.23;44.08;100472.03;5017972;28;20052;-52
2022/03/31 00:03:57;;;;;;;6.05;2.50;;;;;;;18.22;44.23;100481.09;5026338;28;20084;-52
2022/03/31 00:06:23;;;;;;;5.60;2.45;;;;;;;18.22;43.83;100473.03;5023624;28;20064;-52
2022/03/31 00:08:50;;;;;;;6.18;2.28;;;;;;;18.21;43.68;100470.50;5021843;28;20076;-49
2022/03/31 00:11:17;;;;;;;4.43;2.28;;;;;;;18.20;44.07;100471.50;5022536;28;20050;-52
2022/03/31 00:13:45;;;;;;;4.60;1.98;;;;;;;18.19;44.07;100465.31;5020515;28;20055;-52
2022/03/31 00:16:12;;;;;;;4.00;2.20;;;;;;;18.17;44.16;100461.09;5020547;28;20487;-52
2022/03/31 00:18:39;;;;;;;3.92;1.88;;;;;;;18.16;44.29;100467.47;5026981;28;20049;-53
2022/03/31 00:21:06;;;;;;;5.15;2.05;;;;;;;18.14;44.27;100467.66;5024577;28;20088;-53
2022/03/31 00:23:36;;;;;;;4.10;2.00;;;;;;;18.12;44.06;100466.13;5024903;28;20052;-53
2022/03/31 00:26:04;;;;;;;5.38;2.45;;;;;;;18.12;44.28;100458.06;5024519;28;20038;-52
2022/03/31 00:28:30;;;;;;;3.85;1.90;;;;;;;18.10;44.24;100468.16;5024775;28;20060;-52
2022/03/31 00:30:57;;;;;;;3.38;1.58;;;;;;;18.09;44.28;100461.06;5020553;28;20446;-50
2022/03/31 00:33:23;;;;;;;3.20;1.90;;;;;;;18.09;44.28;100453.91;5020756;28;20145;-52
2022/03/31 00:35:50;;;;;;;3.35;2.00;;;;;;;18.09;44.19;100458.41;5024732;28;20053;-52
2022/03/31 00:38:16;;;;;;;4.65;2.03;;;;;;;18.06;44.56;100464.94;5024588;28;20045;-48
2022/03/31 00:40:43;;;;;;;4.00;2.03;;;;;;;18.07;44.26;100473.81;5023609;28;20057;-50
2022/03/31 00:43:10;;;;;;;3.70;1.65;;;;;;;18.03;44.44;100467.94;5025532;28;20131;-49
2022/03/31 00:45:46;;;;;;;3.67;1.92;;;;;;;18.02;44.08;100468.97;5023146;28;20503;-51
2022/03/31 00:48:15;;;;;;;3.78;1.98;;;;;;;18.03;44.38;100467.94;5017524;28;20052;-50
2022/03/31 00:50:42;;;;;;;3.35;1.73;;;;;;;18.02;44.64;100465.44;5019376;28;20045;-49
2022/03/31 00:53:09;;;;;;;2.75;1.65;;;;;;;18.02;44.28;100460.91;5023669;28;20038;-50
2022/03/31 00:55:53;;;;;;;5.00;1.50;;;;;;;18.00;44.47;100455.69;5020716;28;20069;-50
2022/03/31 00:58:20;;;;;;;3.42;1.60;;;;;;;17.99;44.40;100445.16;5020818;28;20056;-51
2022/03/31 01:00:47;;;;;;;2.47;1.42;;;;;;;17.98;44.43;100451.50;5016401;28;20095;-50
2022/03/31 01:03:14;;;;;;;4.00;1.77;;;;;;;17.98;44.51;100451.50;5018000;28;20136;-48
2022/03/31 01:05:41;;;;;;;4.18;1.73;;;;;;;17.96;44.63;100451.66;5019783;28;20128;-52
2022/03/31 01:08:08;;;;;;;2.20;1.17;;;;;;;17.93;44.38;100449.31;5023591;28;20145;-50
2022/03/31 01:10:35;;;;;;;2.63;1.60;;;;;;;17.93;44.52;100449.31;5021235;28;20115;-52
2022/03/31 01:13:06;;;;;;;3.70;1.50;;;;;;;17.91;44.61;100445.13;5026735;28;20057;-51
2022/03/31 01:15:33;;;;;;;3.28;1.65;;;;;;;17.91;44.32;100445.13;5020891;28;20062;-52
2022/03/31 01:17:59;;;;;;;1.42;1.15;;;;;;;17.88;44.59;100438.22;5024258;28;20056;-47
2022/03/31 01:20:26;;;;;;;3.00;1.35;;;;;;;17.87;44.52;100430.34;5021743;28;20045;-50
2022/03/31 01:22:53;;;;;;;3.20;1.65;;;;;;;17.86;44.20;100434.03;5026350;28;20057;-48
2022/03/31 01:25:20;;;;;;;1.92;1.25;;;;;;;17.86;44.07;100434.03;5018314;28;20053;-50
2022/03/31 01:27:48;;;;;;;2.28;1.10;;;;;;;17.83;44.41;100445.94;5023986;28;20301;-52
2022/03/31 01:30:17;;;;;;;2.15;1.33;;;;;;;17.81;44.91;100433.66;5020204;28;20124;-50
2022/03/31 01:32:45;;;;;;;2.13;1.27;;;;;;;17.82;44.45;100428.16;5024996;28;20467;-52
2022/03/31 01:35:13;;;;;;;1.13;0.80;;;;;;;17.81;44.25;100425.63;5018639;28;20059;-50
2022/03/31 01:37:40;;;;;;;1.88;0.98;;;;;;;17.80;44.61;100419.44;5026112;28;20132;-51
2022/03/31 01:40:07;;;;;;;2.13;1.02;;;;;;;17.79;44.68;100411.56;5024925;28;20125;-53
2022/03/31 01:42:35;;;;;;;1.42;0.90;;;;;;;17.79;44.70;100411.56;5026790;28;20052;-48
2022/03/31 01:45:04;;;;;;;1.85;1.10;;;;;;;17.78;44.92;100418.78;5017097;28;20512;-51
2022/03/31 01:47:30;;;;;;;1.35;1.02;;;;;;;17.76;44.51;100402.84;5025222;28;20424;-51
2022/03/31 01:49:57;;;;;;;1.45;1.08;;;;;;;17.73;44.54;100400.47;5024827;28;20493;-49
2022/03/31 01:52:23;;;;;;;2.40;0.93;;;;;;;17.73;44.59;100392.44;5018366;28;20052;-53
2022/03/31 01:54:50;;;;;;;1.75;1.05;;;;;;;17.72;44.60;100380.00;5020431;28;20065;-50
2022/03/31 01:57:17;;;;;;;1.50;0.80;;;;;;;17.71;44.93;100377.50;5023855;28;20069;-50
2022/03/31 01:59:43;;;;;;;2.15;1.00;;;;;;;17.69;44.82;100380.34;5018251;28;20073;-50
2022/03/31 02:02:12;;;;;;;1.02;0.93;;;;;;;17.69;44.21;100383.03;5019668;28;20140;-49
2022/03/31 02:04:40;;;;;;;1.70;1.05;;;;;;;17.67;44.43;100376.16;5017240;28;20060;-47
2022/03/31 02:07:08;;;;;;;1.77;1.08;;;;;;;17.66;44.55;100378.00;5018425;28;20349;-48
2022/03/31 02:09:35;;;;;;;1.83;1.00;;;;;;;17.66;44.65;100379.84;5018424;28;20049;-50
2022/03/31 02:12:02;;;;;;;1.42;0.90;;;;;;;17.65;44.39;100372.81;5019863;28;20132;-51
2022/03/31 02:14:29;;;;;;;2.10;0.98;;;;;;;17.64;44.53;100371.94;5023084;28;20349;-51
2022/03/31 02:16:55;;;;;;;1.45;0.80;;;;;;;17.64;44.65;100371.94;5019936;28;20052;-51
2022/03/31 02:19:25;;;;;;;0.93;0.80;;;;;;;17.62;44.85;100368.59;5021265;28;20701;-48
2022/03/31 02:21:52;;;;;;;1.55;0.70;;;;;;;17.62;45.03;100367.75;5020357;28;20053;-50
2022/03/31 02:24:18;;;;;;;2.22;1.05;;;;;;;17.62;45.17;100368.59;5019188;28;20048;-52
2022/03/31 02:26:47;;;;;;;1.10;0.75;;;;;;;17.62;45.07;100357.88;5021725;28;20050;-48
2022/03/31 02:29:14;;;;;;;1.83;0.80;;;;;;;17.59;44.93;100352.84;5019157;28;20041;-48
2022/03/31 02:31:41;;;;;;;2.38;0.95;;;;;;;17.59;44.59;100352.84;5018668;28;20049;-52
2022/03/31 02:34:08;;;;;;;1.20;0.82;;;;;;;17.57;45.09;100352.19;5022295;28;20044;-50
2022/03/31 02:36:35;;;;;;;1.33;0.70;;;;;;;17.57;44.81;100352.19;5023202;28;20043;-51
2022/03/31 02:39:01;;;;;;;1.27;0.70;;;;;;;17.57;44.99;100351.31;5024254;28;20053;-49
2022/03/31 02:41:28;;;;;;;1.42;0.70;;;;;;;17.55;44.87;100346.13;5022704;28;20041;-51
2022/03/31 02:43:54;;;;;;;1.77;0.90;;;;;;;17.55;44.94;100346.13;5030275;28;20053;-50
2022/03/31 02:46:21;;;;;;;2.35;0.70;;;;;;;17.53;45.33;100348.16;5024901;28;20037;-51
2022/03/31 02:48:52;;;;;;;1.35;0.77;;;;;;;17.52;45.00;100349.13;5023701;28;20448;-52
2022/03/31 02:51:19;;;;;;;1.23;0.70;;;;;;;17.51;45.31;100344.78;5024590;28;20348;-49
2022/03/31 02:56:31;;;;;;;1.25;0.80;;;;;;;17.47;44.64;100349.59;5024768;28;20344;-48
2022/03/31 02:58:58;;;;;;;1.00;0.50;;;;;;;17.48;44.54;100350.44;5027142;28;20381;-49
2022/03/31 03:01:27;;;;;;;1.33;0.70;;;;;;;17.46;45.11;100344.44;5023487;28;20049;-50
2022/03/31 03:03:58;;;;;;;0.63;0.52;;;;;;;17.45;45.07;100348.13;5022918;28;20691;-49
2022/03/31 03:06:25;;;;;;;1.23;0.63;;;;;;;17.44;44.79;100349.09;5024111;28;20041;-51
2022/03/31 03:08:52;;;;;;;1.48;0.60;;;;;;;17.44;45.15;100351.78;5024989;28;20306;-51
2022/03/31 03:11:19;;;;;;;1.67;0.75;;;;;;;17.43;45.30;100340.22;5030763;28;20144;-50
2022/03/31 03:13:46;;;;;;;0.93;0.60;;;;;;;17.41;45.03;100334.19;5021378;28;20053;-48
2022/03/31 03:16:13;;;;;;;1.42;0.63;;;;;;;17.42;44.66;100341.22;5031262;28;20125;-49
2022/03/31 03:18:41;;;;;;;1.55;0.57;;;;;;;17.41;45.20;100333.38;5027782;28;20053;-50
2022/03/31 03:21:08;;;;;;;0.88;0.57;;;;;;;17.41;45.10;100325.31;5028043;28;20056;-50
2022/03/31 03:23:36;;;;;;;1.83;0.80;;;;;;;17.39;45.04;100324.63;5027329;28;20045;-49
2022/03/31 03:26:03;;;;;;;0.63;0.40;;;;;;;17.40;44.71;100331.66;5020434;28;20420;-49
2022/03/31 03:28:37;;;;;;;1.08;0.70;;;;;;;17.40;45.00;100332.50;5025048;28;20061;-51
2022/03/31 03:31:05;;;;;;;;;;;;;;;17.39;44.62;100330.00;5022875;28;20165;-48
2022/03/31 03:33:32;;;;;;;0.52;0.50;;;;;;;17.43;44.85;100331.34;5027224;28;19933;-51
2022/03/31 03:35:59;;;;;;;1.42;0.55;;;;;;;17.47;44.70;100327.34;5020858;28;20052;-50
2022/03/31 03:38:27;;;;;;;1.17;0.77;;;;;;;17.54;44.29;100330.22;5025862;28;20065;-51
2022/03/31 03:40:54;;;;;;;2.10;0.60;;;;;;;17.61;44.33;100331.22;5025354;28;20046;-47
2022/03/31 03:43:21;;;;;;;1.13;0.63;;;;;;;17.69;44.74;100324.06;5026310;28;20145;-48
2022/03/31 03:45:47;;;;;;;1.30;0.68;;;;;;;17.78;44.66;100333.00;5021060;28;20056;-50
2022/03/31 03:48:14;;;;;;;1.33;0.80;;;;;;;17.86;44.89;100329.50;5022915;28;20041;-47
2022/03/31 03:50:41;;;;;;;1.73;0.77;;;;;;;17.92;44.75;100316.25;5021044;28;20077;-51
2022/03/31 03:53:08;;;;;;;2.50;0.68;;;;;;;18.02;44.46;100316.09;5025075;28;20176;-49
2022/03/31 03:55:36;;;;;;;1.13;0.50;;;;;;;18.09;44.52;100318.94;5027363;28;20140;-49
2022/03/31 03:58:03;;;;;;;6.28;0.70;;;;;;;18.16;44.45;100307.38;5028457;28;20056;-49
2022/03/31 04:00:30;;;;;;;3.45;0.65;;;;;;;18.24;44.67;100303.84;5022759;28;20060;-52
2022/03/31 04:02:57;;;;;;;2.28;0.80;;;;;;;18.31;44.70;100304.88;5024736;28;20060;-53
2022/03/31 04:05:25;;;;;;;1.13;0.77;;;;;;;18.38;44.29;100303.19;5026324;28;20124;-51
2022/03/31 04:07:51;;;;;;;2.30;0.95;;;;;;;18.46;44.13;100302.34;5022377;28;20510;-48
2022/03/31 04:10:18;;;;;;;5.93;1.60;;;;;;;18.50;43.89;100301.00;5024463;28;20128;-49
2022/03/31 04:12:44;;;;;;;3.28;1.75;;;;;;;18.56;43.65;100303.00;5025341;28;20337;-52
2022/03/31 04:15:13;;;;;;;5.65;2.78;;;;;;;18.61;43.88;100308.69;5026602;28;20053;-49
2022/03/31 04:17:42;;;;;;;9.85;3.28;;;;;;;18.66;43.71;100324.28;5027344;28;20055;-50
2022/03/31 04:20:10;;;;;;;4.40;2.55;;;;;;;18.70;43.83;100325.66;5027106;28;20420;-50
2022/03/31 04:22:37;;;;;;;9.63;3.22;;;;;;;18.72;43.61;100327.16;5024687;28;20124;-48
2022/03/31 04:25:06;;;;;;;5.90;3.35;;;;;;;18.73;44.04;100326.16;5024783;28;20045;-48
2022/03/31 04:27:37;;;;;;;4.82;2.92;;;;;;;18.73;43.67;100325.28;5026004;28;20041;-49
2022/03/31 04:30:06;;;;;;;6.30;3.17;;;;;;;18.73;43.82;100334.22;5025396;28;20105;-48
2022/03/31 04:32:32;;;;;;;8.02;3.08;;;;;;;18.72;43.44;100337.88;5026854;28;20045;-50
2022/03/31 04:34:59;;;;;;;8.38;3.42;;;;;;;18.69;43.27;100323.94;5028624;28;20042;-49
2022/03/31 04:37:26;;;;;;;7.32;3.10;;;;;;;18.67;43.76;100332.16;5027858;28;20128;-50
2022/03/31 04:39:52;;;;;;;5.60;2.90;;;;;;;18.66;42.83;100326.97;5023611;28;20049;-47
2022/03/31 04:42:20;;;;;;;6.63;3.00;;;;;;;18.61;43.14;100314.03;5020233;28;20674;-51
2022/03/31 04:44:47;;;;;;;14.38;3.25;;;;;;;18.58;43.44;100313.56;5020281;28;20409;-50
2022/03/31 04:47:13;;;;;;;5.40;2.97;;;;;;;18.55;43.19;100311.22;5028929;28;20036;-49
2022/03/31 04:49:40;;;;;;;4.78;2.80;;;;;;;18.50;43.13;100320.63;5018043;28;20076;-51
2022/03/31 04:52:07;;;;;;;4.70;3.17;;;;;;;18.47;43.32;100317.44;5025615;28;20092;-49
2022/03/31 04:54:33;;;;;;;5.35;3.40;;;;;;;18.43;42.99;100324.97;5026948;28;20041;-50
2022/03/31 04:57:00;;;;;;;4.97;3.08;;;;;;;18.39;43.23;100329.00;5027871;28;20125;-51
2022/03/31 04:59:27;;;;;;;8.85;3.67;;;;;;;18.34;43.13;100317.13;5016633;28;20045;-49
2022/03/31 05:01:53;;;;;;;5.65;3.10;;;;;;;18.32;42.91;100325.31;5021463;28;20049;-51
2022/03/31 05:04:20;;;;;;;5.32;2.65;;;;;;;18.29;43.04;100325.69;5025648;28;20041;-49
2022/03/31 05:06:47;;;;;;;4.47;2.83;;;;;;;18.24;43.32;100331.53;5022787;28;20424;-50
2022/03/31 05:09:13;;;;;;;5.38;2.90;;;;;;;18.23;43.59;100320.97;5026312;28;20045;-50
2022/03/31 05:11:40;;;;;;;4.57;2.72;;;;;;;18.20;43.25;100324.81;5018776;28;20066;-49
2022/03/31 05:14:06;;;;;;;4.25;2.53;;;;;;;18.19;43.10;100320.47;5026776;28;20519;-49
2022/03/31 05:16:33;;;;;;;5.40;2.70;;;;;;;18.16;43.33;100323.47;5026790;28;20041;-50
2022/03/31 05:18:59;;;;;;;4.07;2.38;;;;;;;18.13;43.59;100329.19;5028272;28;20155;-51
2022/03/31 05:21:26;;;;;;;5.18;2.40;;;;;;;18.10;43.04;100324.16;5019714;28;21548;-51
2022/03/31 05:23:53;;;;;;;4.22;2.30;;;;;;;18.07;43.63;100318.28;5020579;28;20515;-52
2022/03/31 05:26:19;;;;;;;6.68;2.70;;;;;;;18.03;43.54;100317.78;5019810;28;20061;-51
2022/03/31 05:28:46;;;;;;;3.10;2.10;;;;;;;18.00;43.28;100315.41;5021852;28;20336;-47
2022/03/31 05:31:12;;;;;;;4.05;2.45;;;;;;;17.98;43.47;100309.41;5022161;28;20053;-47
2022/03/31 05:33:39;;;;;;;3.47;2.40;;;;;;;17.96;43.60;100311.38;5024965;28;20052;-51
2022/03/31 05:36:06;;;;;;;4.38;2.92;;;;;;;17.95;43.54;100310.56;5024722;28;20413;-48
2022/03/31 05:38:32;;;;;;;3.42;2.25;;;;;;;17.92;43.35;100308.19;5030711;28;20095;-52
2022/03/31 05:40:59;;;;;;;4.15;1.95;;;;;;;17.91;43.91;100319.09;5025435;28;20049;-51
2022/03/31 05:43:25;;;;;;;5.43;2.55;;;;;;;17.88;43.49;100312.22;5026633;28;20056;-48
2022/03/31 05:45:52;;;;;;;5.60;2.30;;;;;;;17.86;43.50;100310.72;5022611;28;20679;-48
2022/03/31 05:48:19;;;;;;;3.35;2.10;;;;;;;17.86;43.51;100305.38;5020758;28;20049;-48
2022/03/31 05:50:45;;;;;;;2.80;1.60;;;;;;;17.84;43.45;100305.50;5019674;28;20433;-48
2022/03/31 05:53:13;;;;;;;3.42;1.80;;;;;;;17.82;43.51;100302.16;5019593;28;20457;-52
2022/03/31 05:55:40;;;;;;;4.80;2.28;;;;;;;17.83;43.71;100300.31;5025173;28;20124;-49
2022/03/31 05:58:08;;;;;;;2.55;1.52;;;;;;;17.79;43.53;100298.97;5020355;28;20052;-48
2022/03/31 06:00:35;;;;;;;2.70;1.92;;;;;;;17.78;43.82;100303.50;5024351;28;20717;-50
2022/03/31 06:03:02;;;;;;;2.97;1.63;;;;;;;17.76;43.78;100295.63;5017076;28;20049;-52
2022/03/31 06:05:28;;;;;;;3.92;2.15;;;;;;;17.77;43.67;100299.16;5022744;28;20493;-50
2022/03/31 06:07:55;;;;;;;2.70;1.40;;;;;;;17.74;43.75;100299.44;5022497;28;20132;-51
2022/03/31 06:10:22;;;;;;;2.78;1.67;;;;;;;17.74;43.67;100299.44;5019868;28;20619;-49
2022/03/31 06:12:48;;;;;;;4.63;2.20;;;;;;;17.72;43.72;100288.88;5020304;28;20052;-52
2022/03/31 06:15:15;;;;;;;4.05;1.48;;;;;;;17.70;44.00;100288.22;5021000;28;20067;-51
2022/03/31 06:17:44;;;;;;;3.08;1.60;;;;;;;17.70;43.84;100290.91;5024342;28;20085;-51
2022/03/31 06:20:12;;;;;;;3.33;1.80;;;;;;;17.69;44.08;100294.59;5025010;28;20064;-51
2022/03/31 06:22:39;;;;;;;3.17;1.65;;;;;;;17.69;43.88;100293.75;5021086;28;20045;-51
2022/03/31 06:25:11;;;;;;;3.15;1.73;;;;;;;17.69;43.91;100291.06;5022286;28;20046;-49
2022/03/31 06:27:38;;;;;;;3.08;1.83;;;;;;;17.69;44.03;100299.13;5019657;28;20121;-50
2022/03/31 06:30:05;;;;;;;2.28;1.70;;;;;;;17.69;43.56;100291.91;5024002;28;20132;-47
2022/03/31 06:32:32;;;;;;;2.90;2.17;;;;;;;17.67;43.95;100291.22;5023774;28;20153;-50
2022/03/31 06:35:00;;;;;;;3.40;1.88;;;;;;;17.68;43.69;100298.25;5026432;28;20046;-51
2022/03/31 06:37:27;;;;;;;3.03;1.70;;;;;;;17.69;43.65;100288.38;5023190;28;20041;-51
2022/03/31 06:39:53;;;;;;;2.92;1.60;;;;;;;17.69;43.92;100289.22;5017122;28;20041;-52
2022/03/31 06:42:20;;;;;;;2.97;1.40;;;;;;;17.68;43.66;100287.53;5018392;28;20144;-51
2022/03/31 06:44:47;;;;;;;4.32;1.60;;;;;;;17.70;43.42;100290.06;5020748;28;20045;-52
2022/03/31 06:47:14;;;;;;;2.28;1.38;;;;;;;17.70;43.72;100290.91;5017463;28;20038;-52
2022/03/31 06:49:40;;;;;;;2.88;1.35;;;;;;;17.71;43.82;100300.59;5019762;28;20046;-49
2022/03/31 06:52:07;;;;;;;2.75;1.30;;;;;;;17.71;43.67;100297.09;5021383;28;20480;-52
2022/03/31 06:54:33;;;;;;;3.38;1.40;;;;;;;17.70;43.51;100298.94;5022781;28;20045;-51
2022/03/31 06:57:00;;;;;;;2.42;1.30;;;;;;;17.71;43.81;100289.88;5019854;28;20054;-51
2022/03/31 06:59:29;;;;;;;3.08;1.63;;;;;;;17.72;43.39;100288.88;5021959;28;20060;-49
2022/03/31 07:01:55;;;;;;;2.60;1.50;;;;;;;17.72;43.67;100280.84;5021291;28;20417;-49
2022/03/31 07:04:22;;;;;;;1.95;1.30;;;;;;;17.72;43.72;100283.50;5022830;28;20302;-50
2022/03/31 07:06:49;;;;;;;2.95;1.60;;;;;;;17.72;43.80;100288.03;5020785;28;20056;-51
2022/03/31 07:09:16;;;;;;;2.92;1.50;;;;;;;17.71;43.87;100284.53;5021775;28;20100;-49
2022/03/31 07:11:42;;;;;;;4.20;1.13;;;;;;;17.73;43.62;100281.69;5022286;28;20059;-49
2022/03/31 07:14:09;;;;;;;1.45;1.00;;;;;;;17.73;43.50;100281.69;5017803;28;20073;-48
2022/03/31 07:16:35;;;;;;;1.70;1.30;;;;;;;17.73;43.42;100281.69;5023887;28;20045;-49
2022/03/31 07:19:03;;;;;;;1.30;1.17;;;;;;;17.72;43.44;100280.84;5020328;28;20091;-51
2022/03/31 07:21:31;;;;;;;2.35;1.30;;;;;;;17.72;43.41;100282.69;5022296;28;20049;-51
2022/03/31 07:24:00;;;;;;;1.45;1.00;;;;;;;17.72;43.43;100280.84;5024696;28;20079;-52
2022/03/31 07:26:27;;;;;;;2.08;1.33;;;;;;;17.73;43.92;100276.34;5021758;28;20042;-51
2022/03/31 07:28:54;;;;;;;2.45;1.30;;;;;;;17.73;43.30;100279.84;5022199;28;20166;-50
2022/03/31 07:31:28;;;;;;;3.92;1.38;;;;;;;17.72;43.38;100277.31;5025011;28;20372;-50
2022/03/31 07:33:55;;;;;;;;;;;;;;;17.72;43.86;100278.16;5022327;28;20099;-51
2022/03/31 07:36:21;;;;;;;1.48;0.80;;;;;;;17.73;43.84;100277.16;5019160;28;20318;-51
2022/03/31 07:38:48;;;;;;;2.33;1.30;;;;;;;17.73;43.38;100273.66;5024383;28;20128;-52
2022/03/31 07:41:15;;;;;;;1.85;1.10;;;;;;;17.71;43.52;100271.13;5026094;28;20049;-51
2022/03/31 07:43:42;;;;;;;2.10;1.23;;;;;;;17.72;43.44;100271.97;5024615;28;20128;-50
2022/03/31 07:46:10;;;;;;;1.08;0.95;;;;;;;17.72;43.77;100267.44;5025196;28;20052;-51
2022/03/31 07:48:37;;;;;;;2.25;1.00;;;;;;;17.73;43.65;100269.13;5025212;28;20061;-50
2022/03/31 07:51:04;;;;;;;1.95;1.08;;;;;;;17.74;43.47;100262.78;5027723;28;20132;-50
2022/03/31 07:53:34;;;;;;;0.98;0.88;;;;;;;17.75;43.47;100264.47;5024782;28;20305;-52
2022/03/31 07:56:05;;;;;;;1.65;0.90;;;;;;;17.76;43.20;100252.72;5023755;28;20053;-48
2022/03/31 07:58:32;;;;;;;2.05;1.00;;;;;;;17.78;43.38;100259.78;5024694;28;20125;-51
2022/03/31 08:00:59;;;;;;;3.30;0.85;;;;;;;17.78;43.10;100257.94;5026394;28;20057;-52
2022/03/31 08:03:26;;;;;;;2.33;0.90;;;;;;;17.80;42.96;100265.81;5022592;28;20053;-50
2022/03/31 08:05:52;;;;;;;2.55;0.95;;;;;;;17.80;43.26;100266.63;5023957;28;20079;-51
2022/03/31 08:08:19;;;;;;;1.38;1.10;;;;;;;17.81;43.35;100260.28;5024249;28;20045;-51
2022/03/31 08:10:48;;;;;;;1.63;1.00;;;;;;;17.80;43.72;100258.59;5030396;28;20598;-49
2022/03/31 08:13:27;;;;;;;1.30;0.68;;;;;;;17.80;43.42;100257.75;5023895;28;20445;-51
2022/03/31 08:15:55;;;;;;;2.35;1.10;;;;;;;17.80;43.09;100255.06;5028459;28;20056;-51
2022/03/31 08:18:28;;;;;;;3.28;0.90;;;;;;;17.78;43.04;100260.63;5020230;28;20252;-52
2022/03/31 08:20:57;;;;;;;0.95;0.80;;;;;;;17.78;43.47;100260.63;5021186;28;20356;-51
2022/03/31 08:23:24;;;;;;;2.00;0.70;;;;;;;17.76;43.26;100258.09;5024111;28;20405;-52
2022/03/31 08:25:52;;;;;;;0.70;0.63;;;;;;;17.75;43.38;100255.59;5019573;28;20050;-50
2022/03/31 08:28:18;;;;;;;0.80;0.60;;;;;;;17.74;43.43;100254.75;5023553;28;20073;-51
2022/03/31 08:30:45;;;;;;;1.52;0.60;;;;;;;17.73;43.31;100258.41;5026264;28;20124;-48
2022/03/31 08:33:12;;;;;;;1.00;0.57;;;;;;;17.73;43.43;100257.56;5026442;28;20083;-49
2022/03/31 08:35:43;;;;;;;1.20;0.70;;;;;;;17.74;43.10;100254.75;5024558;28;20131;-52
2022/03/31 08:38:09;;;;;;;1.88;0.88;;;;;;;17.74;43.43;100253.88;5023853;28;20121;-51
2022/03/31 08:40:37;;;;;;;1.20;0.75;;;;;;;17.74;43.28;100259.25;5018374;28;20048;-51
2022/03/31 08:43:04;;;;;;;1.00;0.50;;;;;;;17.75;43.31;100255.59;5019632;28;20661;-51
2022/03/31 08:45:35;;;;;;;0.93;0.70;;;;;;;17.74;43.50;100254.75;5022630;28;20317;-50
2022/03/31 08:48:04;;;;;;;1.02;0.70;;;;;;;17.76;43.11;100254.56;5025135;28;20095;-49
2022/03/31 08:50:34;;;;;;;1.42;0.88;;;;;;;17.78;43.21;100255.25;5018258;28;20147;-48
2022/03/31 08:53:01;;;;;;;1.52;0.63;;;;;;;17.78;43.23;100255.25;5024446;28;20064;-52
2022/03/31 08:55:28;;;;;;;1.27;0.75;;;;;;;17.80;42.91;100252.41;5020739;28;20132;-51
2022/03/31 08:57:55;;;;;;;2.15;0.80;;;;;;;17.80;43.33;100242.50;5021575;28;20042;-51
2022/03/31 09:00:23;;;;;;;1.13;0.50;;;;;;;17.80;43.31;100247.03;5021699;28;20401;-50
2022/03/31 09:03:00;;;;;;;1.73;0.70;;;;;;;17.79;43.07;100251.56;5025802;28;20420;-51
2022/03/31 09:05:34;;;;;;;0.50;0.50;;;;;;;17.80;42.95;100252.41;5016847;28;20054;-51
2022/03/31 09:08:02;;;;;;;0.75;0.75;;;;;;;17.80;43.36;100255.91;5023598;28;20077;-51
2022/03/31 09:10:29;;;;;;;2.05;0.80;;;;;;;17.81;43.50;100254.94;5021112;28;20041;-49
2022/03/31 09:12:56;;;;;;;0.55;0.55;;;;;;;17.83;43.55;100252.91;5022789;28;20050;-51
2022/03/31 09:15:32;;;;;;;1.15;0.90;;;;;;;17.87;43.28;100248.88;5021193;28;20057;-52
2022/03/31 09:18:00;;;;;;;1.73;0.70;;;;;;;17.89;43.53;100246.88;5027843;28;20049;-49
2022/03/31 09:20:40;;;;;;;1.98;0.93;;;;;;;17.90;43.34;100256.59;5021167;28;20129;-50
2022/03/31 09:23:13;;;;;;;0.50;0.50;;;;;;;17.92;43.05;100251.91;5023958;28;20349;-51
2022/03/31 09:25:39;;;;;;;0.80;0.77;;;;;;;17.92;43.54;100249.22;5021837;28;20052;-49
2022/03/31 09:28:19;;;;;;;0.63;0.60;;;;;;;17.93;43.25;100250.03;5024107;28;20289;-50
2022/03/31 09:30:49;;;;;;;0.50;0.50;;;;;;;17.96;43.35;100250.56;5022880;28;20064;-53
2022/03/31 09:33:32;;;;;;;0.65;0.60;;;;;;;17.96;43.47;100257.75;5020557;28;20045;-49
2022/03/31 09:36:07;;;;;;;0.60;0.52;;;;;;;17.97;43.21;100243.38;5021688;28;20045;-52
2022/03/31 09:38:36;;;;;;;0.90;0.60;;;;;;;17.99;43.22;100252.06;5018201;28;20103;-49
2022/03/31 09:41:23;;;;;;;0.75;0.70;;;;;;;17.99;42.94;100252.06;5019351;28;20048;-51
2022/03/31 09:43:52;;;;;;;1.58;0.70;;;;;;;18.02;43.09;100250.91;5020785;28;20354;-50
2022/03/31 09:46:24;;;;;;;2.58;0.63;;;;;;;18.01;43.00;100244.72;5019350;28;20445;-51
2022/03/31 09:48:57;;;;;;;1.35;0.70;;;;;;;18.02;43.55;100246.38;5021474;28;20064;-50
2022/03/31 09:51:25;;;;;;;2.47;0.63;;;;;;;18.04;43.28;100240.84;5026218;28;20059;-51
2022/03/31 09:53:53;;;;;;;1.80;0.70;;;;;;;18.07;43.33;100243.19;5026908;28;20050;-48
2022/03/31 09:56:22;;;;;;;1.10;0.60;;;;;;;18.07;43.19;100240.50;5017948;28;20052;-53
2022/03/31 09:58:49;;;;;;;1.13;0.60;;;;;;;18.08;43.29;100245.69;5021758;28;20185;-51
2022/03/31 10:01:17;;;;;;;2.17;0.98;;;;;;;18.08;43.13;100240.34;5016493;28;20141;-50
2022/03/31 10:03:44;;;;;;;0.80;0.55;;;;;;;18.06;43.02;100237.00;5021407;28;20094;-50
2022/03/31 10:06:12;;;;;;;0.60;0.60;;;;;;;18.06;43.24;100241.53;5019730;28;20105;-50
2022/03/31 10:08:44;;;;;;;1.70;0.80;;;;;;;18.06;43.45;100245.03;5016497;28;20156;-51
2022/03/31 10:11:19;;;;;;;1.02;0.75;;;;;;;18.05;42.98;100246.06;5021016;28;20083;-50
2022/03/31 10:13:57;;;;;;;1.17;0.93;;;;;;;18.02;43.11;100246.38;5023171;28;20046;-51
2022/03/31 10:16:44;;;;;;;0.70;0.60;;;;;;;18.00;43.31;100238.50;5028280;28;20417;-52
2022/03/31 10:19:11;;;;;;;0.93;0.68;;;;;;;18.02;43.17;100248.22;5018699;28;20050;-51
2022/03/31 10:21:38;;;;;;;0.70;0.70;;;;;;;18.01;43.54;100239.34;5023060;28;20045;-53
2022/03/31 10:26:58;;;;;;;1.30;0.75;;;;;;;18.00;43.51;100232.28;5023022;28;20042;-50
2022/03/31 10:29:36;;;;;;;1.10;0.75;;;;;;;18.01;43.50;100234.00;5018643;28;20079;-51
2022/03/31 10:32:13;;;;;;;1.00;0.80;;;;;;;18.02;43.65;100224.09;5023560;28;20060;-50
2022/03/31 10:34:44;;;;;;;0.82;0.40;;;;;;;18.03;43.47;100231.13;5022036;28;20120;-49
2022/03/31 10:37:11;;;;;;;0.77;0.68;;;;;;;18.03;43.32;100231.13;5021410;28;20041;-47
2022/03/31 10:39:37;;;;;;;1.65;0.80;;;;;;;18.03;43.81;100225.75;5025008;28;20037;-50
2022/03/31 10:42:10;;;;;;;0.70;0.70;;;;;;;18.03;43.29;100231.13;5020066;28;20496;-49
2022/03/31 10:44:37;;;;;;;0.60;0.60;;;;;;;18.02;43.27;100222.25;5018641;28;20041;-51
2022/03/31 10:47:09;;;;;;;0.98;0.88;;;;;;;18.04;43.48;100225.59;5018675;28;20099;-51
2022/03/31 10:49:37;;;;;;;1.15;0.80;;;;;;;18.04;43.04;100225.59;5019203;28;20064;-53
2022/03/31 10:52:17;;;;;;;0.98;0.85;;;;;;;18.02;43.52;100227.63;5022167;28;20141;-52
2022/03/31 10:54:43;;;;;;;2.25;1.00;;;;;;;18.04;43.18;100217.53;5018546;28;20472;-52
2022/03/31 10:57:18;;;;;;;1.48;0.77;;;;;;;18.03;42.97;100213.19;5021832;28;20068;-50
2022/03/31 10:59:47;;;;;;;0.90;0.80;;;;;;;18.04;43.74;100214.84;5021924;28;20077;-49
2022/03/31 11:02:19;;;;;;;0.65;0.63;;;;;;;18.04;43.31;100212.19;5024172;28;20064;-48
2022/03/31 11:04:52;;;;;;;0.95;0.70;;;;;;;18.07;42.89;100216.38;5021013;28;20057;-48
2022/03/31 11:07:24;;;;;;;1.20;0.85;;;;;;;18.06;42.54;100215.53;5025357;28;20378;-50
2022/03/31 11:10:10;;;;;;;1.10;0.80;;;;;;;18.06;43.08;100207.50;5026480;28;20041;-51
2022/03/31 11:12:36;;;;;;;1.27;0.80;;;;;;;18.09;42.79;100217.91;5025378;28;20070;-51
2022/03/31 11:15:09;;;;;;;1.17;0.90;;;;;;;18.10;43.10;100214.19;5026811;28;20065;-48
2022/03/31 11:17:37;;;;;;;1.00;0.75;;;;;;;18.12;43.22;100208.66;5020063;28;20046;-50
2022/03/31 11:20:14;;;;;;;1.10;0.80;;;;;;;18.11;43.25;100215.03;5025049;28;20053;-52
2022/03/31 11:22:49;;;;;;;0.88;0.77;;;;;;;18.11;43.22;100209.66;5024936;28;20423;-51
2022/03/31 11:25:17;;;;;;;1.17;0.95;;;;;;;18.10;42.91;100202.63;5020364;28;20126;-51
2022/03/31 11:27:46;;;;;;;1.20;0.98;;;;;;;18.09;43.61;100198.25;5023760;28;20054;-50
2022/03/31 11:30:15;;;;;;;0.90;0.70;;;;;;;18.09;43.49;100204.47;5024777;28;20125;-50
2022/03/31 11:32:43;;;;;;;1.25;0.85;;;;;;;18.09;43.15;100192.91;5023279;28;20128;-48
2022/03/31 11:35:12;;;;;;;1.10;0.85;;;;;;;18.11;43.32;100196.25;5022746;28;20065;-51
2022/03/31 11:37:45;;;;;;;2.15;0.93;;;;;;;18.12;43.44;100200.59;5024994;28;20120;-52